createdAt,value
2023-05-03T00:00:26.566Z,8.20
2023-05-03T00:02:54.139Z,10.50
2023-05-03T00:05:20.871Z,10.45
2023-05-03T00:10:43.017Z,9.95
2023-05-03T00:15:44.818Z,11.18
2023-05-03T00:18:11.568Z,9.35
2023-05-03T00:31:25.745Z,10.45
2023-05-03T00:33:52.350Z,9.60
2023-05-03T00:36:18.870Z,9.77
2023-05-03T00:38:45.451Z,10.35
2023-05-03T00:41:13.179Z,8.98
2023-05-03T00:43:44.960Z,9.90
2023-05-03T00:46:17.204Z,8.43
2023-05-03T00:48:46.638Z,11.45
2023-05-03T00:51:15.030Z,9.32
2023-05-03T00:54:19.190Z,9.35
2023-05-03T00:57:16.884Z,8.85
2023-05-03T00:59:43.592Z,11.80
2023-05-03T01:02:10.610Z,9.35
2023-05-03T01:04:38.276Z,9.95
2023-05-03T01:07:26.382Z,8.50
2023-05-03T01:10:10.786Z,9.10
2023-05-03T01:15:50.083Z,11.98
2023-05-03T01:18:22.134Z,9.95
2023-05-03T01:20:50.674Z,9.47
2023-05-03T01:27:05.331Z,9.15
2023-05-03T01:29:31.932Z,9.45
2023-05-03T01:32:04.538Z,10.02
2023-05-03T01:34:48.544Z,9.73
2023-05-03T01:37:15.204Z,9.00
2023-05-03T01:39:56.220Z,11.27
2023-05-03T01:42:30.770Z,9.98
2023-05-03T01:44:58.732Z,8.90
2023-05-03T01:47:26.785Z,9.25
2023-05-03T01:50:01.778Z,10.75
2023-05-03T01:52:52.579Z,9.73
2023-05-03T01:55:43.072Z,9.15
2023-05-03T01:58:15.076Z,10.60
2023-05-03T02:00:41.797Z,10.23
2023-05-03T02:03:08.865Z,11.35
2023-05-03T02:05:35.507Z,11.38
2023-05-03T02:08:02.105Z,11.95
2023-05-03T02:10:28.757Z,12.00
2023-05-03T02:12:55.344Z,10.82
2023-05-03T02:15:21.897Z,12.80
2023-05-03T02:17:49.647Z,9.65
2023-05-03T02:20:16.609Z,9.20
2023-05-03T02:22:43.238Z,13.00
2023-05-03T02:25:09.849Z,11.25
2023-05-03T02:27:56.442Z,10.20
2023-05-03T02:30:47.535Z,10.57
2023-05-03T02:33:19.596Z,13.02
2023-05-03T02:35:46.462Z,10.43
2023-05-03T02:38:13.045Z,10.50
2023-05-03T02:40:39.691Z,10.90
2023-05-03T02:43:12.204Z,10.88
2023-05-03T02:45:38.752Z,10.95
2023-05-03T02:48:06.044Z,10.35
2023-05-03T02:50:32.708Z,10.93
2023-05-03T02:52:59.285Z,11.00
2023-05-03T02:55:25.964Z,10.85
2023-05-03T02:57:52.549Z,11.12
2023-05-03T03:00:19.624Z,10.25
2023-05-03T03:02:46.522Z,12.15
2023-05-03T03:05:13.413Z,12.25
2023-05-03T03:08:07.788Z,11.40
2023-05-03T03:10:59.364Z,13.48
2023-05-03T03:13:31.841Z,10.18
2023-05-03T03:15:58.518Z,12.50
2023-05-03T03:18:25.100Z,10.82
2023-05-03T03:20:51.756Z,12.40
2023-05-03T03:23:18.341Z,12.02
2023-05-03T03:25:44.937Z,11.85
2023-05-03T03:28:11.707Z,11.60
2023-05-03T03:30:38.299Z,10.75
2023-05-03T03:33:04.886Z,10.88
2023-05-03T03:35:32.103Z,11.68
2023-05-03T03:38:23.904Z,11.52
2023-05-03T03:41:38.095Z,11.30
2023-05-03T03:44:04.956Z,12.73
2023-05-03T03:46:32.648Z,11.73
2023-05-03T03:48:59.470Z,14.57
2023-05-03T03:51:26.992Z,10.73
2023-05-03T03:53:55.554Z,10.68
2023-05-03T03:59:03.760Z,11.40
2023-05-03T04:01:30.606Z,10.13
2023-05-03T04:03:57.384Z,12.30
2023-05-03T04:06:24.082Z,10.77
2023-05-03T04:08:50.656Z,11.57
2023-05-03T04:11:32.333Z,13.85
2023-05-03T04:14:14.026Z,12.52
2023-05-03T04:16:59.165Z,12.60
2023-05-03T04:19:26.460Z,11.68
2023-05-03T04:21:53.206Z,14.25
2023-05-03T04:24:19.791Z,11.32
2023-05-03T04:26:46.335Z,14.07
2023-05-03T04:29:12.990Z,11.27
2023-05-03T04:34:15.975Z,10.73
2023-05-03T04:36:42.929Z,12.20
2023-05-03T04:39:11.657Z,11.55
2023-05-03T04:41:38.547Z,11.38
2023-05-03T04:44:05.958Z,9.60
2023-05-03T04:46:44.469Z,12.75
2023-05-03T04:49:35.205Z,11.60
2023-05-03T04:52:06.828Z,11.60
2023-05-03T04:54:33.336Z,12.75
2023-05-03T04:56:59.910Z,12.48
2023-05-03T04:59:26.537Z,10.32
2023-05-03T05:01:58.343Z,11.48
2023-05-03T05:04:25.604Z,11.12
2023-05-03T05:06:54.324Z,9.60
2023-05-03T05:09:26.127Z,9.45
2023-05-03T05:11:53.953Z,9.88
2023-05-03T05:14:23.025Z,8.73
2023-05-03T05:16:49.699Z,10.80
2023-05-03T05:19:16.608Z,11.57
2023-05-03T05:21:43.317Z,12.02
2023-05-03T05:24:10.758Z,11.10
2023-05-03T05:26:37.357Z,11.80
2023-05-03T05:29:03.962Z,11.30
2023-05-03T05:31:30.719Z,10.70
2023-05-03T05:33:57.591Z,12.07
2023-05-03T05:36:24.161Z,9.98
2023-05-03T05:38:50.745Z,9.23
2023-05-03T05:41:17.398Z,9.35
2023-05-03T05:43:45.045Z,9.70
2023-05-03T05:46:11.799Z,9.57
2023-05-03T05:48:39.291Z,10.85
2023-05-03T05:51:06.184Z,10.25
2023-05-03T05:53:32.719Z,9.68
2023-05-03T05:55:59.322Z,9.60
2023-05-03T05:58:25.944Z,9.45
2023-05-03T06:00:52.875Z,12.68
2023-05-03T06:03:19.470Z,8.95
2023-05-03T06:05:46.360Z,11.35
2023-05-03T06:08:13.060Z,11.32
2023-05-03T06:10:40.064Z,9.02
2023-05-03T06:13:06.621Z,8.23
2023-05-03T06:15:53.815Z,8.13
2023-05-03T06:18:20.411Z,8.27
2023-05-03T06:20:53.180Z,7.80
2023-05-03T06:23:19.705Z,10.52
2023-05-03T06:25:55.242Z,10.75
2023-05-03T06:28:52.813Z,11.35
2023-05-03T06:31:34.595Z,9.48
2023-05-03T06:34:01.476Z,7.80
2023-05-03T06:36:30.537Z,8.35
2023-05-03T06:38:57.138Z,9.93
2023-05-03T06:41:23.804Z,7.70
2023-05-03T06:43:50.334Z,9.55
2023-05-03T06:46:19.634Z,9.23
2023-05-03T06:48:46.895Z,10.68
2023-05-03T06:51:13.529Z,7.50
2023-05-03T06:53:40.073Z,7.37
2023-05-03T06:56:07.049Z,10.57
2023-05-03T06:58:33.612Z,7.62
2023-05-03T07:06:24.229Z,6.30
2023-05-03T07:53:12.540Z,9.35
2023-05-03T07:55:39.077Z,8.77
2023-05-03T07:58:05.918Z,7.25
2023-05-03T08:00:32.505Z,7.80
2023-05-03T08:02:59.198Z,8.45
2023-05-03T08:05:36.678Z,10.48
2023-05-03T08:08:30.422Z,7.55
2023-05-03T08:11:07.903Z,7.47
2023-05-03T08:13:34.648Z,8.57
2023-05-03T08:18:36.596Z,10.32
2023-05-03T08:21:03.230Z,12.55
2023-05-03T08:23:29.769Z,10.10
2023-05-03T08:25:56.757Z,8.45
2023-05-03T08:28:23.440Z,9.13
2023-05-03T08:30:50.174Z,7.62
2023-05-03T08:33:16.774Z,11.00
2023-05-03T08:35:43.378Z,8.48
2023-05-03T08:38:09.937Z,7.90
2023-05-03T08:41:02.729Z,10.65
2023-05-03T08:46:39.696Z,8.30
2023-05-03T08:49:09.253Z,8.60
2023-05-03T08:51:44.502Z,9.07
2023-05-03T08:54:12.445Z,8.30
2023-05-03T08:56:43.951Z,9.18
2023-05-03T08:59:11.640Z,11.40
2023-05-03T09:01:40.121Z,9.77
2023-05-03T09:04:08.456Z,8.63
2023-05-03T09:06:36.766Z,11.23
2023-05-03T09:09:08.797Z,7.68
2023-05-03T09:11:37.985Z,7.45
2023-05-03T09:14:17.093Z,8.88
2023-05-03T09:16:45.653Z,8.60
2023-05-03T09:19:13.883Z,9.30
2023-05-03T09:21:42.256Z,8.25
2023-05-03T09:24:23.426Z,7.55
2023-05-03T09:26:51.707Z,9.43
2023-05-03T09:29:29.414Z,8.32
2023-05-03T09:32:05.442Z,8.75
2023-05-03T09:34:32.907Z,8.73
2023-05-03T09:36:59.593Z,7.97
2023-05-03T09:39:26.502Z,9.80
2023-05-03T09:41:53.192Z,9.13
2023-05-03T09:44:20.259Z,8.43
2023-05-03T09:47:06.353Z,8.38
2023-05-03T09:49:33.554Z,7.87
2023-05-03T09:52:01.667Z,8.55
2023-05-03T09:54:29.017Z,9.45
2023-05-03T09:56:55.841Z,8.75
2023-05-03T09:59:22.430Z,8.80
2023-05-03T10:02:32.625Z,10.35
2023-05-03T10:04:59.642Z,8.90
2023-05-03T10:07:28.900Z,8.60
2023-05-03T10:09:59.225Z,9.48
2023-05-03T10:12:27.172Z,8.35
2023-05-03T10:14:57.028Z,8.45
2023-05-03T10:17:43.575Z,7.57
2023-05-03T10:21:20.487Z,9.30
2023-05-03T10:24:09.515Z,9.25
2023-05-03T10:26:36.053Z,9.00
2023-05-03T10:31:51.643Z,10.25
2023-05-03T10:34:25.870Z,7.37
2023-05-03T10:36:55.781Z,9.27
2023-05-03T10:39:23.009Z,7.28
2023-05-03T10:42:01.869Z,6.87
2023-05-03T10:44:51.462Z,10.90
2023-05-03T10:51:33.040Z,7.00
2023-05-03T10:53:59.858Z,7.15
2023-05-03T10:56:26.443Z,7.37
2023-05-03T10:58:56.916Z,12.02
2023-05-03T11:01:26.958Z,7.72
2023-05-03T11:03:56.553Z,8.00
2023-05-03T11:06:34.472Z,9.55
2023-05-03T11:09:02.515Z,7.72
2023-05-03T11:11:29.146Z,6.22
2023-05-03T11:13:55.786Z,8.85
2023-05-03T11:16:22.631Z,7.47
2023-05-03T11:18:50.640Z,7.53
2023-05-03T11:21:17.517Z,7.12
2023-05-03T11:23:44.837Z,7.30
2023-05-03T11:26:12.066Z,6.32
2023-05-03T11:28:42.586Z,7.05
2023-05-03T11:31:10.267Z,7.03
2023-05-03T11:33:38.838Z,7.47
2023-05-03T11:36:08.239Z,9.13
2023-05-03T11:38:36.565Z,7.82
2023-05-03T11:41:14.288Z,7.62
2023-05-03T11:43:45.439Z,7.43
2023-05-03T11:46:14.387Z,8.70
2023-05-03T11:49:01.848Z,9.98
2023-05-03T11:51:28.493Z,9.45
2023-05-03T11:53:56.773Z,9.30
2023-05-03T11:56:24.222Z,8.18
2023-05-03T11:58:57.056Z,10.13
2023-05-03T12:02:17.998Z,7.12
2023-05-03T12:05:04.241Z,8.48
2023-05-03T12:07:31.448Z,6.68
2023-05-03T12:10:10.158Z,8.05
2023-05-03T12:12:52.945Z,5.90
2023-05-03T12:15:30.022Z,7.62
2023-05-03T12:18:00.280Z,5.28
2023-05-03T12:23:04.300Z,7.30
2023-05-03T12:25:33.979Z,6.97
2023-05-03T12:30:34.025Z,6.97
2023-05-03T12:33:04.181Z,6.12
2023-05-03T12:35:58.906Z,7.37
2023-05-03T12:39:10.108Z,6.68
2023-05-03T13:09:21.717Z,6.37
2023-05-03T13:11:54.969Z,8.20
2023-05-03T13:14:21.910Z,8.00
2023-05-03T13:16:49.376Z,6.60
2023-05-03T14:32:24.606Z,4.03
2023-05-03T14:37:39.326Z,6.07
2023-05-03T14:40:09.987Z,4.47
2023-05-03T14:51:35.134Z,5.25
2023-05-03T15:22:06.549Z,5.95
2023-05-03T15:24:33.111Z,5.37
2023-05-03T15:27:02.938Z,6.60
2023-05-03T15:29:29.561Z,4.75
2023-05-03T15:31:56.574Z,5.22
2023-05-03T15:34:23.176Z,4.87
2023-05-03T15:36:49.757Z,6.37
2023-05-03T15:39:16.338Z,4.90
2023-05-03T15:41:45.460Z,5.12
2023-05-03T15:44:14.787Z,5.07
2023-05-03T15:46:42.928Z,4.40
2023-05-03T15:49:10.124Z,4.12
2023-05-03T15:51:37.062Z,4.65
2023-05-03T15:54:03.997Z,5.55
2023-05-03T15:56:31.249Z,5.87
2023-05-03T15:58:57.870Z,4.55
2023-05-03T16:01:24.792Z,7.43
2023-05-03T16:03:51.443Z,5.35
2023-05-03T16:06:18.265Z,6.10
2023-05-03T16:08:45.660Z,5.62
2023-05-03T16:11:12.838Z,6.25
2023-05-03T16:13:39.499Z,5.65
2023-05-03T16:16:06.704Z,4.60
2023-05-03T16:18:33.483Z,5.30
2023-05-03T16:21:06.642Z,5.05
2023-05-03T16:23:33.433Z,4.15
2023-05-03T16:26:00.072Z,5.50
2023-05-03T16:28:26.701Z,4.62
2023-05-03T16:30:53.302Z,5.57
2023-05-03T16:33:20.367Z,4.85
2023-05-03T16:35:46.972Z,4.90
2023-05-03T16:38:13.559Z,4.80
2023-05-03T16:40:40.571Z,4.57
2023-05-03T16:43:07.528Z,6.72
2023-05-03T16:45:34.173Z,5.00
2023-05-03T16:48:03.968Z,5.22
2023-05-03T16:50:32.289Z,5.70
2023-05-03T16:52:58.874Z,4.75
2023-05-03T16:55:25.430Z,5.45
2023-05-03T16:57:51.999Z,6.18
2023-05-03T17:00:20.950Z,6.43
2023-05-03T17:08:08.147Z,6.03
2023-05-03T17:10:36.635Z,5.53
2023-05-03T17:13:03.779Z,6.57
2023-05-03T17:15:32.741Z,7.43
2023-05-03T17:20:35.182Z,8.02
2023-05-03T17:23:01.904Z,6.50
2023-05-03T17:28:03.896Z,7.43
2023-05-03T17:30:30.616Z,8.23
2023-05-03T17:32:58.190Z,16.60
2023-05-03T17:35:24.833Z,6.65
2023-05-03T17:40:53.687Z,9.15
2023-05-03T17:43:20.522Z,7.40
2023-05-03T17:45:49.656Z,7.68
2023-05-03T17:53:58.192Z,6.77
2023-05-03T17:59:13.055Z,9.48
2023-05-03T18:01:39.662Z,7.20
2023-05-03T18:06:41.757Z,7.30
2023-05-03T18:09:08.533Z,7.15
2023-05-03T18:11:35.123Z,9.60
2023-05-03T18:14:01.678Z,7.82
2023-05-03T18:16:28.796Z,8.38
2023-05-03T18:18:55.495Z,8.77
2023-05-03T18:21:23.523Z,7.05
2023-05-03T18:23:50.077Z,7.93
2023-05-03T18:26:17.243Z,8.35
2023-05-03T18:28:43.878Z,10.18
2023-05-03T18:31:11.584Z,8.40
2023-05-03T18:33:40.099Z,6.57
2023-05-03T18:36:11.732Z,8.40
2023-05-03T18:38:39.730Z,8.35
2023-05-03T18:43:46.146Z,8.00
2023-05-03T18:46:18.423Z,9.43
2023-05-03T18:51:27.098Z,8.10
2023-05-03T18:53:54.102Z,10.45
2023-05-03T18:56:20.682Z,9.50
2023-05-03T18:58:47.853Z,10.95
2023-05-03T19:01:14.428Z,8.02
2023-05-03T19:03:41.275Z,7.85
2023-05-03T19:06:10.961Z,8.75
2023-05-03T19:11:33.078Z,8.57
2023-05-03T19:14:00.988Z,7.72
2023-05-03T19:16:27.945Z,8.90
2023-05-03T19:19:13.655Z,5.93
2023-05-03T19:22:05.471Z,7.85
2023-05-03T19:24:37.322Z,6.07
2023-05-03T19:27:04.776Z,7.32
2023-05-03T19:29:31.513Z,8.73
2023-05-03T19:31:58.077Z,7.78
2023-05-03T19:34:24.750Z,8.90
2023-05-03T19:36:51.385Z,9.65
2023-05-03T19:39:17.920Z,8.73
2023-05-03T19:41:44.984Z,6.90
2023-05-03T19:44:12.186Z,7.15
2023-05-03T19:46:38.903Z,6.87
2023-05-03T19:49:05.775Z,8.23
2023-05-03T19:51:33.118Z,9.55
2023-05-03T19:54:04.959Z,8.93
2023-05-03T19:56:31.493Z,7.28
2023-05-03T19:58:58.305Z,8.80
2023-05-03T20:01:24.931Z,8.13
2023-05-03T20:03:53.461Z,9.85
2023-05-03T20:06:20.528Z,6.20
2023-05-03T20:08:47.213Z,7.22
2023-05-03T20:11:13.824Z,8.52
2023-05-03T20:13:40.368Z,9.00
2023-05-03T20:16:08.326Z,8.38
2023-05-03T20:18:35.180Z,9.27
2023-05-03T20:21:03.795Z,8.45
2023-05-03T20:23:30.588Z,9.27
2023-05-03T20:25:57.115Z,7.20
2023-05-03T20:28:24.057Z,7.72
2023-05-03T20:30:50.660Z,7.43
2023-05-03T20:33:17.339Z,10.30
2023-05-03T20:35:44.273Z,8.60
2023-05-03T20:41:13.146Z,8.57
2023-05-03T20:43:39.761Z,10.00
2023-05-03T20:46:06.504Z,9.20
2023-05-03T20:48:33.225Z,9.55
2023-05-03T20:51:00.807Z,8.90
2023-05-03T20:54:27.984Z,9.32
2023-05-03T20:57:47.650Z,9.10
2023-05-03T21:00:17.655Z,9.70
2023-05-03T21:02:47.144Z,9.40
2023-05-03T21:25:55.223Z,7.55
2023-05-03T21:28:23.718Z,7.07
2023-05-03T21:30:50.316Z,7.30
2023-05-03T21:33:16.956Z,8.77
2023-05-03T21:35:43.594Z,9.43
2023-05-03T21:38:10.260Z,6.32
2023-05-03T21:40:36.810Z,8.85
2023-05-03T21:43:21.812Z,10.35
2023-05-03T21:46:13.196Z,6.95
2023-05-03T21:48:40.810Z,7.22
2023-05-03T21:51:07.964Z,6.95
2023-05-03T21:53:35.528Z,7.18
2023-05-03T21:56:02.168Z,8.32
2023-05-03T21:58:29.499Z,6.62
2023-05-03T22:00:56.047Z,8.02
2023-05-03T22:03:22.993Z,8.15
2023-05-03T22:05:51.383Z,7.50
2023-05-03T22:08:18.602Z,6.60
2023-05-03T22:10:46.433Z,8.88
2023-05-03T22:13:49.717Z,7.50
2023-05-03T22:16:38.049Z,8.68
2023-05-03T22:19:05.420Z,7.85
2023-05-03T22:21:31.993Z,7.32
2023-05-03T22:23:58.575Z,7.55
2023-05-03T22:26:25.310Z,8.15
2023-05-03T22:28:52.057Z,7.05
2023-05-03T22:31:18.711Z,7.78
2023-05-03T22:33:50.460Z,7.80
2023-05-03T22:36:17.014Z,9.00
2023-05-03T22:38:43.644Z,7.97
2023-05-03T22:41:10.443Z,7.37
2023-05-03T22:44:01.809Z,8.95
2023-05-03T22:46:54.194Z,7.90
2023-05-03T22:49:20.743Z,10.10
2023-05-03T22:51:47.364Z,7.97
2023-05-03T22:54:13.908Z,8.23
2023-05-03T22:56:40.425Z,7.95
2023-05-03T22:59:07.024Z,9.48
2023-05-03T23:04:29.101Z,7.10
2023-05-03T23:06:55.690Z,8.65
2023-05-03T23:09:22.735Z,10.02
2023-05-03T23:11:56.597Z,9.93
2023-05-03T23:14:46.090Z,7.03
2023-05-03T23:17:31.567Z,7.32
2023-05-03T23:19:58.329Z,8.35
2023-05-03T23:22:24.914Z,8.43
2023-05-03T23:24:51.920Z,8.98
2023-05-03T23:27:20.779Z,8.77
2023-05-03T23:29:48.257Z,9.88
2023-05-03T23:53:15.164Z,8.45
2023-05-03T23:55:41.939Z,8.68
2023-05-03T23:58:09.065Z,8.98
